Time;durP1;ratioP1;P1;durP2;ratioP2;P2;SDS_P1;SDS_P2;PMS_P1;PMS_P2;Temp;Humidity;BMP_temperature;BMP_pressure;BME280_temperature;BME280_humidity;BME280_pressure;Samples;Min_cycle;Max_cycle;Signal;HPM_P1;HPM_P2
2023/12/05 00:02:12;;;;;;;;;;;;;;;-0.31;100.00;99638.59;5178636;22;20341;-79
2023/12/05 00:11:02;;;;;;;;;;;;;;;-0.33;100.00;99639.72;5008657;28;19960;-81
2023/12/05 00:13:27;;;;;;;;;;;;;;;-0.35;100.00;99633.75;5005189;28;19921;-78
2023/12/05 00:25:02;;;;;;;;;;;;;;;-0.33;100.00;99627.34;5007265;28;19936;-78
2023/12/05 00:27:28;;;;;;;;;;;;;;;-0.33;100.00;99630.00;5011236;28;19921;-79
2023/12/05 00:29:53;;;;;;;;;;;;;;;-0.33;100.00;99631.78;5011141;28;19931;-80
2023/12/05 00:41:00;;;;;;;;;;;;;;;-0.29;100.00;99622.56;4989268;28;20336;-80
2023/12/05 00:46:34;;;;;;;;;;;;;;;-0.28;100.00;99629.50;4990832;28;19945;-80
2023/12/05 00:49:21;;;;;;;;;;;;;;;-0.27;100.00;99622.44;4991431;28;19985;-80
2023/12/05 00:52:10;;;;;;;;;;;;;;;-0.25;100.00;99623.91;4992784;28;20057;-80
2023/12/05 00:54:38;;;;;;;;;;;;;;;-0.32;100.00;99628.16;4989735;28;19921;-80
2023/12/05 01:00:10;;;;;;;;;;;;;;;-0.28;100.00;99618.13;4989413;28;19945;-81
2023/12/05 01:08:41;;;;;;;;;;;;;;;-0.37;100.00;99610.13;4991624;28;19949;-80
2023/12/05 01:14:09;;;;;;;;;;;;;;;-0.28;100.00;99610.19;5015302;28;20419;-80
2023/12/05 01:16:43;;;;;;;;;;;;;;;-0.30;100.00;99610.31;5015382;28;19925;-80
2023/12/05 01:19:08;;;;;;;;;;;;;;;-0.31;100.00;99608.66;5010978;28;19964;-80
2023/12/05 01:21:34;;;;;;;;;;;;;;;-0.29;100.00;99611.16;5019415;28;19997;-80
2023/12/05 01:23:59;;;;;;;;;;;;;;;-0.25;100.00;99607.19;5022909;28;20025;-80
2023/12/05 01:26:24;;;;;;;;;;;;;;;-0.24;100.00;99598.28;5014887;28;19933;-80
2023/12/05 01:28:49;;;;;;;;;;;;;;;-0.26;100.00;99600.25;5017326;28;19921;-79
2023/12/05 01:31:17;;;;;;;;;;;;;;;-0.25;100.00;99602.75;5016291;28;20361;-80
2023/12/05 01:33:42;;;;;;;;;;;;;;;-0.25;100.00;99589.53;5015386;28;19921;-79
2023/12/05 01:36:11;;;;;;;;;;;;;;;-0.27;100.00;99596.78;5256440;22;19932;-80
2023/12/05 01:38:36;;;;;;;;;;;;;;;-0.24;100.00;99600.94;5014687;28;19925;-80
2023/12/05 01:41:01;;;;;;;;;;;;;;;-0.21;100.00;99603.25;5014495;28;20322;-80
2023/12/05 01:43:27;;;;;;;;;;;;;;;-0.18;100.00;99593.19;5014500;28;20313;-80
2023/12/05 01:45:52;;;;;;;;;;;;;;;-0.19;100.00;99598.66;5015320;28;19918;-79
2023/12/05 01:48:17;;;;;;;;;;;;;;;-0.20;100.00;99594.34;5028513;28;20044;-80
2023/12/05 01:50:43;;;;;;;;;;;;;;;-0.16;100.00;99593.06;5019157;28;19957;-80
2023/12/05 01:53:08;;;;;;;;;;;;;;;-0.15;100.00;99600.00;5012626;28;20369;-79
2023/12/05 01:55:35;;;;;;;;;;;;;;;-0.19;100.00;99607.44;5013351;28;19932;-79
2023/12/05 01:58:00;;;;;;;;;;;;;;;-0.13;100.00;99594.53;5014176;28;19928;-79
2023/12/05 02:00:25;;;;;;;;;;;;;;;-0.11;100.00;99592.56;5023297;28;20020;-80
2023/12/05 02:02:51;;;;;;;;;;;;;;;-0.13;100.00;99589.25;5011518;28;20356;-80
2023/12/05 02:05:16;;;;;;;;;;;;;;;-0.13;100.00;99594.53;5008023;28;19921;-80
2023/12/05 02:07:42;;;;;;;;;;;;;;;-0.07;100.00;99588.63;5013779;28;19929;-80
2023/12/05 02:10:08;;;;;;;;;;;;;;;-0.11;100.00;99597.84;5013018;28;21459;-80
2023/12/05 02:12:33;;;;;;;;;;;;;;;-0.10;100.00;99588.94;5014440;28;19928;-80
2023/12/05 02:14:59;;;;;;;;;;;;;;;-0.10;100.00;99587.13;5013618;28;20028;-80
2023/12/05 02:17:24;;;;;;;;;;;;;;;-0.06;100.00;99591.09;4989130;28;19977;-80
2023/12/05 02:19:57;;;;;;;;;;;;;;;-0.06;100.00;99585.00;5020180;28;19922;-80
2023/12/05 02:22:25;;;;;;;;;;;;;;;-0.08;100.00;99592.25;4996518;28;20675;-80
2023/12/05 02:24:56;;;;;;;;;;;;;;;-0.12;100.00;99585.63;5018232;28;20384;-80
2023/12/05 02:27:37;;;;;;;;;;;;;;;-0.10;100.00;99583.66;4999774;28;19921;-80
2023/12/05 02:30:03;;;;;;;;;;;;;;;-0.09;100.00;99582.66;5026582;28;19928;-79
2023/12/05 02:32:28;;;;;;;;;;;;;;;-0.09;100.00;99587.94;5013924;28;19926;-80
2023/12/05 02:34:54;;;;;;;;;;;;;;;-0.08;100.00;99585.13;5012789;28;19945;-80
2023/12/05 02:37:22;;;;;;;;;;;;;;;-0.08;100.00;99585.13;5012783;28;19921;-79
2023/12/05 02:40:24;;;;;;;;;;;;;;;-0.07;100.00;99585.97;5013591;28;19921;-80
2023/12/05 02:42:50;;;;;;;;;;;;;;;-0.06;100.00;99580.50;4952665;28;20003;-79
2023/12/05 02:45:16;;;;;;;;;;;;;;;-0.04;100.00;99588.31;4978867;28;20027;-79
2023/12/05 02:47:41;;;;;;;;;;;;;;;-0.05;100.00;99584.00;4996486;28;19928;-80
2023/12/05 02:50:07;;;;;;;;;;;;;;;-0.01;100.00;99588.00;5022753;28;19925;-79
2023/12/05 02:52:35;;;;;;;;;;;;;;;-0.04;100.00;99577.72;5014626;28;19996;-80
2023/12/05 02:55:01;;;;;;;;;;;;;;;-0.03;100.00;99584.69;5020183;28;19921;-79
2023/12/05 02:57:27;;;;;;;;;;;;;;;-0.04;100.00;99577.72;5018003;28;19922;-80
2023/12/05 02:59:52;;;;;;;;;;;;;;;-0.05;100.00;99581.34;5015563;28;19921;-80
2023/12/05 03:02:20;;;;;;;;;;;;;;;-0.08;100.00;99581.66;5012473;28;19922;-80
2023/12/05 03:04:47;;;;;;;;;;;;;;;-0.03;100.00;99582.03;5013143;28;20298;-80
2023/12/05 03:07:13;;;;;;;;;;;;;;;-0.01;100.00;99580.88;5013187;28;19922;-81
2023/12/05 03:09:38;;;;;;;;;;;;;;;0.00;100.00;99576.44;5013887;28;19922;-81
2023/12/05 03:12:04;;;;;;;;;;;;;;;-0.06;100.00;99579.69;5015911;28;19922;-80
2023/12/05 03:14:29;;;;;;;;;;;;;;;-0.06;100.00;99575.22;5016528;28;19976;-80
2023/12/05 03:16:57;;;;;;;;;;;;;;;-0.08;100.00;99577.19;5012055;28;20108;-80
2023/12/05 03:19:22;;;;;;;;;;;;;;;-0.06;100.00;99574.41;5011708;28;19925;-80
2023/12/05 03:21:54;;;;;;;;;;;;;;;-0.06;100.00;99580.50;5012733;28;19971;-80
2023/12/05 03:24:20;;;;;;;;;;;;;;;-0.05;100.00;99573.44;5011833;28;19925;-80
2023/12/05 03:26:46;;;;;;;;;;;;;;;-0.06;100.00;99569.13;5011481;28;19926;-80
2023/12/05 03:29:11;;;;;;;;;;;;;;;-0.05;100.00;99566.31;5012878;28;19929;-80
2023/12/05 03:31:38;;;;;;;;;;;;;;;-0.06;100.00;99563.81;5010080;28;19921;-80
2023/12/05 03:34:04;;;;;;;;;;;;;;;-0.05;100.00;99570.78;5012152;28;19921;-80
2023/12/05 03:36:30;;;;;;;;;;;;;;;-0.05;100.00;99562.84;5011602;28;19921;-80
2023/12/05 03:38:55;;;;;;;;;;;;;;;-0.09;100.00;99561.50;5011800;28;19925;-80
2023/12/05 03:41:21;;;;;;;;;;;;;;;-0.09;100.00;99562.31;5010956;28;19975;-79
2023/12/05 03:43:47;;;;;;;;;;;;;;;-0.06;100.00;99561.19;5013334;28;19972;-80
2023/12/05 03:46:15;;;;;;;;;;;;;;;-0.08;100.00;99563.16;5023477;28;19964;-80
2023/12/05 03:48:40;;;;;;;;;;;;;;;-0.08;100.00;99560.50;5011196;28;19929;-80
2023/12/05 03:51:05;;;;;;;;;;;;;;;-0.09;100.00;99556.22;5011941;28;20008;-80
2023/12/05 03:53:32;;;;;;;;;;;;;;;-0.08;100.00;99565.81;5011517;28;19961;-80
2023/12/05 03:55:57;;;;;;;;;;;;;;;-0.09;100.00;99561.50;5011328;28;20256;-80
2023/12/05 03:58:22;;;;;;;;;;;;;;;-0.08;100.00;99555.22;5012297;28;19922;-80
2023/12/05 04:00:48;;;;;;;;;;;;;;;-0.08;100.00;99557.88;5007027;28;19922;-78
2023/12/05 04:03:13;;;;;;;;;;;;;;;-0.12;100.00;99559.16;5011312;28;19922;-80
2023/12/05 04:05:38;;;;;;;;;;;;;;;-0.09;100.00;99559.66;5012003;28;20338;-80
2023/12/05 04:08:04;;;;;;;;;;;;;;;-0.07;100.00;99559.53;5011587;28;19932;-80
2023/12/05 04:10:29;;;;;;;;;;;;;;;-0.09;100.00;99559.66;5011537;28;19948;-80
2023/12/05 04:12:54;;;;;;;;;;;;;;;-0.08;100.00;99549.94;5013259;28;20467;-80
2023/12/05 04:15:19;;;;;;;;;;;;;;;-0.12;100.00;99561.81;5011269;28;20513;-80
2023/12/05 04:17:45;;;;;;;;;;;;;;;-0.09;100.00;99558.84;5012190;28;20325;-80
2023/12/05 04:20:10;;;;;;;;;;;;;;;-0.07;100.00;99557.69;5012270;28;19921;-80
2023/12/05 04:22:36;;;;;;;;;;;;;;;-0.08;100.00;99569.25;5011585;28;20028;-80
2023/12/05 04:25:01;;;;;;;;;;;;;;;-0.06;100.00;99563.81;5017358;23;19971;-80
2023/12/05 04:27:26;;;;;;;;;;;;;;;-0.07;100.00;99560.34;5012564;28;19925;-80
2023/12/05 04:29:52;;;;;;;;;;;;;;;-0.07;100.00;99562.97;5011849;28;20008;-80
2023/12/05 04:32:17;;;;;;;;;;;;;;;-0.05;100.00;99566.31;5010950;28;19930;-80
2023/12/05 04:34:44;;;;;;;;;;;;;;;-0.06;100.00;99569.13;5011295;28;19921;-80
2023/12/05 04:37:09;;;;;;;;;;;;;;;-0.03;100.00;99561.69;5011871;28;19917;-80
2023/12/05 04:39:34;;;;;;;;;;;;;;;-0.02;100.00;99570.47;5011589;28;19967;-80
2023/12/05 04:42:00;;;;;;;;;;;;;;;-0.04;100.00;99567.16;5012950;28;19922;-80
2023/12/05 04:44:27;;;;;;;;;;;;;;;0.01;100.00;99569.31;5014024;28;19921;-80
2023/12/05 04:46:53;;;;;;;;;;;;;;;-0.02;100.00;99567.81;5014787;28;19937;-80
2023/12/05 04:49:19;;;;;;;;;;;;;;;-0.01;100.00;99569.47;5015750;28;19917;-80
2023/12/05 04:51:47;;;;;;;;;;;;;;;0.00;100.00;99568.50;5015387;28;19921;-80
2023/12/05 04:54:12;;;;;;;;;;;;;;;0.00;100.00;99579.06;5015238;28;20024;-80
2023/12/05 04:56:38;;;;;;;;;;;;;;;0.04;100.00;99580.38;5017403;28;20456;-80
2023/12/05 04:59:03;;;;;;;;;;;;;;;0.03;100.00;99584.03;5015751;28;20300;-80
2023/12/05 05:01:28;;;;;;;;;;;;;;;0.06;100.00;99573.13;5017018;28;20008;-80
2023/12/05 05:03:56;;;;;;;;;;;;;;;0.03;100.00;99581.38;5017132;28;19964;-79
2023/12/05 05:06:21;;;;;;;;;;;;;;;0.02;100.00;99579.72;5019180;28;19921;-80
2023/12/05 05:08:46;;;;;;;;;;;;;;;0.03;100.00;99578.72;5017916;28;19929;-80
2023/12/05 05:11:12;;;;;;;;;;;;;;;0.04;100.00;99580.38;5016676;28;19921;-80
2023/12/05 05:13:37;;;;;;;;;;;;;;;0.04;100.00;99585.69;5021958;28;19926;-80
2023/12/05 05:16:02;;;;;;;;;;;;;;;0.02;100.00;99579.72;5017193;28;19924;-80
2023/12/05 05:18:28;;;;;;;;;;;;;;;0.00;100.00;99584.38;5016047;28;21643;-80
2023/12/05 05:20:53;;;;;;;;;;;;;;;-0.01;100.00;99580.06;5016106;28;19965;-80
2023/12/05 05:23:21;;;;;;;;;;;;;;;0.04;100.00;99575.09;5013941;28;19922;-80
2023/12/05 05:25:47;;;;;;;;;;;;;;;0.04;100.00;99590.16;5014724;28;19925;-80
2023/12/05 05:28:12;;;;;;;;;;;;;;;0.04;100.00;99585.69;5015600;28;19921;-80
2023/12/05 05:30:39;;;;;;;;;;;;;;;0.00;100.00;99581.72;5015050;28;19929;-79
2023/12/05 05:33:04;;;;;;;;;;;;;;;0.01;100.00;99586.00;5013271;28;19922;-80
2023/12/05 05:35:29;;;;;;;;;;;;;;;-0.02;100.00;99581.03;5010134;28;19921;-79
2023/12/05 05:37:54;;;;;;;;;;;;;;;0.01;100.00;99580.69;5013424;28;20047;-79
2023/12/05 05:40:20;;;;;;;;;;;;;;;-0.02;100.00;99573.94;5014485;28;19967;-79
2023/12/05 05:42:45;;;;;;;;;;;;;;;-0.02;100.00;99576.56;5017641;28;20292;-80
2023/12/05 05:45:10;;;;;;;;;;;;;;;-0.02;100.00;99586.34;5015883;28;19936;-80
2023/12/05 05:47:36;;;;;;;;;;;;;;;0.00;100.00;99584.38;5014726;28;19928;-79
2023/12/05 05:50:01;;;;;;;;;;;;;;;-0.01;100.00;99580.88;5015539;28;20285;-80
2023/12/05 05:52:26;;;;;;;;;;;;;;;-0.01;100.00;99588.81;5013889;28;19933;-80
2023/12/05 05:54:52;;;;;;;;;;;;;;;0.04;100.00;99590.16;5013027;28;20419;-80
2023/12/05 05:57:17;;;;;;;;;;;;;;;0.04;100.00;99590.97;5015198;28;19922;-78
2023/12/05 05:59:43;;;;;;;;;;;;;;;0.04;100.00;99583.03;5014465;28;20320;-77
2023/12/05 06:02:08;;;;;;;;;;;;;;;0.08;100.00;99586.22;5013196;28;20384;-78
2023/12/05 06:04:36;;;;;;;;;;;;;;;0.07;100.00;99588.00;5014916;28;19968;-77
2023/12/05 06:07:01;;;;;;;;;;;;;;;0.07;100.00;99590.66;5015034;28;20365;-78
2023/12/05 06:09:26;;;;;;;;;;;;;;;0.04;100.00;99590.97;5016860;28;19929;-78
2023/12/05 06:11:52;;;;;;;;;;;;;;;0.05;100.00;99586.53;5018835;28;19928;-78
2023/12/05 06:14:17;;;;;;;;;;;;;;;0.06;100.00;99591.66;5015343;28;20436;-78
2023/12/05 06:16:42;;;;;;;;;;;;;;;0.06;100.00;99594.28;5013404;28;19925;-77
2023/12/05 06:19:07;;;;;;;;;;;;;;;0.09;100.00;99591.31;5014831;28;19921;-78
2023/12/05 06:21:33;;;;;;;;;;;;;;;0.08;100.00;99594.16;5013534;28;20016;-78
2023/12/05 06:23:58;;;;;;;;;;;;;;;0.08;100.00;99597.59;5013308;28;20015;-76
2023/12/05 06:26:23;;;;;;;;;;;;;;;0.06;100.00;99599.59;5014963;28;19960;-77
2023/12/05 06:28:48;;;;;;;;;;;;;;;0.10;100.00;99597.44;5015814;28;19917;-77
2023/12/05 06:31:14;;;;;;;;;;;;;;;0.12;100.00;99598.94;5014160;28;19921;-78
2023/12/05 06:33:39;;;;;;;;;;;;;;;0.09;100.00;99598.44;5016799;28;19922;-78
2023/12/05 06:36:05;;;;;;;;;;;;;;;0.13;100.00;99600.63;5017204;28;19996;-79
2023/12/05 06:38:30;;;;;;;;;;;;;;;0.13;100.00;99605.06;5018181;28;20362;-79
2023/12/05 06:40:55;;;;;;;;;;;;;;;0.14;100.00;99607.56;5018808;28;20289;-80
2023/12/05 06:43:20;;;;;;;;;;;;;;;0.11;100.00;99602.59;5014955;28;19944;-79
2023/12/05 06:45:46;;;;;;;;;;;;;;;0.18;100.00;99604.59;5013739;28;19929;-79
2023/12/05 06:48:11;;;;;;;;;;;;;;;0.17;100.00;99608.25;5013410;28;19940;-77
2023/12/05 06:50:36;;;;;;;;;;;;;;;0.17;100.00;99602.94;5014228;28;19947;-78
2023/12/05 06:53:04;;;;;;;;;;;;;;;0.14;100.00;99602.28;5013714;28;19921;-86
2023/12/05 06:55:30;;;;;;;;;;;;;;;0.14;100.00;99601.44;5012284;28;19921;-77
2023/12/05 06:57:57;;;;;;;;;;;;;;;0.14;100.00;99607.56;5017311;28;19928;-83
2023/12/05 07:00:26;;;;;;;;;;;;;;;0.11;100.00;99613.16;5223829;22;19925;-79
2023/12/05 07:02:51;;;;;;;;;;;;;;;0.11;100.00;99607.88;4995891;28;20048;-80
2023/12/05 07:05:16;;;;;;;;;;;;;;;0.11;100.00;99613.16;4999851;28;19984;-80
2023/12/05 07:07:42;;;;;;;;;;;;;;;0.12;100.00;99616.63;4993782;28;19921;-80
2023/12/05 07:10:07;;;;;;;;;;;;;;;0.14;100.00;99612.84;4992581;28;19968;-79
2023/12/05 07:12:32;;;;;;;;;;;;;;;0.13;100.00;99618.28;4992615;28;19922;-79
2023/12/05 07:14:58;;;;;;;;;;;;;;;0.14;100.00;99623.44;4997956;28;20327;-83
2023/12/05 07:17:23;;;;;;;;;;;;;;;0.17;100.00;99629.41;5004439;28;20402;-79
2023/12/05 07:19:48;;;;;;;;;;;;;;;0.14;100.00;99623.44;4994164;28;20329;-80
2023/12/05 07:22:14;;;;;;;;;;;;;;;0.20;100.00;99634.34;4994070;28;19978;-79
2023/12/05 07:27:04;;;;;;;;;;;;;;;0.16;100.00;99630.41;5057562;23;20325;-78
2023/12/05 07:29:30;;;;;;;;;;;;;;;0.14;100.00;99641.97;4994814;28;19925;-78
2023/12/05 07:31:55;;;;;;;;;;;;;;;0.21;100.00;99641.31;4997903;28;19926;-78
2023/12/05 07:34:20;;;;;;;;;;;;;;;0.20;100.00;99645.78;4994966;28;19948;-78
2023/12/05 07:36:48;;;;;;;;;;;;;;;0.21;100.00;99651.91;4996767;28;19918;-78
2023/12/05 07:39:14;;;;;;;;;;;;;;;0.21;100.00;99654.53;4992558;28;19922;-78
2023/12/05 07:41:40;;;;;;;;;;;;;;;0.24;100.00;99654.22;5000515;28;20316;-78
2023/12/05 07:44:06;;;;;;;;;;;;;;;0.22;100.00;99657.06;4992966;28;19921;-78
2023/12/05 07:46:32;;;;;;;;;;;;;;;0.24;100.00;99660.38;4991350;28;19926;-78
2023/12/05 07:48:57;;;;;;;;;;;;;;;0.24;100.00;99662.16;4994189;28;19992;-78
2023/12/05 07:51:22;;;;;;;;;;;;;;;0.24;100.00;99673.59;4995936;28;20024;-79
2023/12/05 07:53:48;;;;;;;;;;;;;;;0.26;100.00;99668.13;4993817;28;20012;-78
2023/12/05 07:56:13;;;;;;;;;;;;;;;0.23;100.00;99671.94;4997129;28;19933;-78
2023/12/05 07:58:38;;;;;;;;;;;;;;;0.25;100.00;99672.63;4995236;28;19929;-78
2023/12/05 08:01:04;;;;;;;;;;;;;;;0.30;100.00;99677.44;4993131;28;19929;-77
2023/12/05 08:03:30;;;;;;;;;;;;;;;0.27;100.00;99675.09;4998077;28;19917;-78
2023/12/05 08:05:55;;;;;;;;;;;;;;;0.31;100.00;99676.44;4995210;28;20023;-78
2023/12/05 08:08:20;;;;;;;;;;;;;;;0.31;100.00;99684.38;5005630;28;19988;-77
2023/12/05 08:10:47;;;;;;;;;;;;;;;0.27;100.00;99681.19;5007162;28;19917;-78
2023/12/05 08:13:12;;;;;;;;;;;;;;;0.30;100.00;99690.66;4992265;28;19984;-78
2023/12/05 08:15:38;;;;;;;;;;;;;;;0.36;100.00;99691.84;5001177;28;20377;-78
2023/12/05 08:18:03;;;;;;;;;;;;;;;0.35;100.00;99693.66;4996823;28;20354;-78
2023/12/05 08:20:28;;;;;;;;;;;;;;;0.39;100.00;99688.88;4992329;28;20012;-78
2023/12/05 08:22:53;;;;;;;;;;;;;;;0.38;100.00;99690.69;4992313;28;19922;-78
2023/12/05 08:25:19;;;;;;;;;;;;;;;0.37;100.00;99696.97;4990549;28;20000;-78
2023/12/05 08:27:44;;;;;;;;;;;;;;;0.44;100.00;99699.81;4974242;28;19976;-78
2023/12/05 08:30:10;;;;;;;;;;;;;;;0.42;100.00;99702.63;4973866;28;19914;-78
2023/12/05 08:32:35;;;;;;;;;;;;;;;0.41;100.00;99706.25;4972112;28;19953;-78
2023/12/05 08:35:00;;;;;;;;;;;;;;;0.44;100.00;99710.41;4974633;28;20436;-78
2023/12/05 08:37:31;;;;;;;;;;;;;;;0.47;100.00;99712.72;4974032;28;20345;-78
2023/12/05 08:39:56;;;;;;;;;;;;;;;0.44;100.00;99707.78;4975852;28;19932;-78
2023/12/05 08:42:21;;;;;;;;;;;;;;;0.47;100.00;99706.63;4974245;28;20290;-78
2023/12/05 08:44:46;;;;;;;;;;;;;;;0.43;100.00;99704.28;4976948;28;20325;-78
2023/12/05 08:47:13;;;;;;;;;;;;;;;0.44;100.00;99705.13;4978045;28;19918;-79
2023/12/05 08:49:38;;;;;;;;;;;;;;;0.44;100.00;99708.59;4973306;28;20389;-79
2023/12/05 08:52:04;;;;;;;;;;;;;;;0.51;100.00;99705.31;4973999;28;19922;-78
2023/12/05 08:54:32;;;;;;;;;;;;;;;0.48;100.00;99710.94;4969698;28;20005;-78
2023/12/05 08:56:57;;;;;;;;;;;;;;;0.46;100.00;99713.72;4981034;28;19926;-78
2023/12/05 08:59:22;;;;;;;;;;;;;;;0.47;100.00;99711.91;4974116;28;19929;-78
2023/12/05 09:01:48;;;;;;;;;;;;;;;0.54;100.00;99715.56;4972991;28;20337;-78
2023/12/05 09:04:13;;;;;;;;;;;;;;;0.56;100.00;99714.44;4976399;28;20360;-78
2023/12/05 09:06:38;;;;;;;;;;;;;;;0.65;100.00;99711.78;4977401;28;19918;-79
2023/12/05 09:09:04;;;;;;;;;;;;;;;0.61;100.00;99716.59;4979125;28;19918;-78
2023/12/05 09:11:29;;;;;;;;;;;;;;;0.66;100.00;99716.94;4973655;28;19918;-78
2023/12/05 09:13:54;;;;;;;;;;;;;;;0.69;100.00;99721.09;4976391;28;19972;-79
2023/12/05 09:16:23;;;;;;;;;;;;;;;0.72;100.00;99716.28;4980678;28;20285;-78
2023/12/05 09:18:51;;;;;;;;;;;;;;;0.73;100.00;99722.44;4978033;28;19925;-77
2023/12/05 09:23:51;;;;;;;;;;;;;;;0.77;100.00;99730.88;5255237;23;19926;-77
2023/12/05 09:26:18;;;;;;;;;;;;;;;0.79;100.00;99736.84;5011683;28;19921;-77
2023/12/05 09:28:43;;;;;;;;;;;;;;;0.78;100.00;99737.84;5010990;28;19917;-77
2023/12/05 09:31:08;;;;;;;;;;;;;;;0.83;100.00;99746.13;5012097;28;19929;-77
2023/12/05 09:33:33;;;;;;;;;;;;;;;0.81;100.00;99745.47;5014426;28;19918;-77
2023/12/05 09:35:59;;;;;;;;;;;;;;;0.84;100.00;99740.66;5014573;28;19921;-77
2023/12/05 09:38:24;;;;;;;;;;;;;;;0.80;100.00;99746.47;5013673;28;20361;-77
2023/12/05 09:40:50;;;;;;;;;;;;;;;0.84;100.00;99748.63;5015888;28;19917;-77
2023/12/05 09:43:15;;;;;;;;;;;;;;;0.83;100.00;99749.59;4996887;28;20024;-77
2023/12/05 09:45:43;;;;;;;;;;;;;;;0.84;100.00;99750.44;4998645;28;19921;-77
2023/12/05 09:48:09;;;;;;;;;;;;;;;0.81;100.00;99750.78;5014970;28;19984;-78
2023/12/05 09:50:37;;;;;;;;;;;;;;;0.78;100.00;99751.94;5016109;28;19957;-78
2023/12/05 09:53:02;;;;;;;;;;;;;;;0.84;100.00;99753.09;5013075;28;19980;-78
2023/12/05 09:55:28;;;;;;;;;;;;;;;0.84;100.00;99758.41;4996963;28;19957;-78
2023/12/05 09:57:56;;;;;;;;;;;;;;;0.85;100.00;99758.22;5013081;28;20327;-78
2023/12/05 10:00:21;;;;;;;;;;;;;;;0.86;100.00;99759.88;4994915;28;19979;-79
2023/12/05 10:02:49;;;;;;;;;;;;;;;0.89;100.00;99753.44;5014662;28;19948;-78
2023/12/05 10:05:15;;;;;;;;;;;;;;;0.85;100.00;99765.34;4995557;28;19922;-78
2023/12/05 10:10:16;;;;;;;;;;;;;;;0.86;100.00;99759.88;5054770;22;19926;-78
2023/12/05 10:12:41;;;;;;;;;;;;;;;0.91;100.00;99767.34;5006033;28;19944;-78
2023/12/05 10:15:08;;;;;;;;;;;;;;;0.87;100.00;99760.72;4990192;28;19926;-78
2023/12/05 10:17:35;;;;;;;;;;;;;;;0.90;100.00;99761.22;5022358;28;19910;-78
2023/12/05 10:20:00;;;;;;;;;;;;;;;0.90;100.00;99768.34;5021815;28;20020;-78
2023/12/05 10:22:26;;;;;;;;;;;;;;;0.96;100.00;99774.84;5002854;28;19957;-78
2023/12/05 10:24:53;;;;;;;;;;;;;;;0.87;100.00;99769.50;4996282;28;19922;-77
2023/12/05 10:27:18;;;;;;;;;;;;;;;0.85;100.00;99773.31;4994417;28;19987;-78
2023/12/05 10:29:44;;;;;;;;;;;;;;;0.81;100.00;99771.97;5001791;28;19996;-77
2023/12/05 10:32:10;;;;;;;;;;;;;;;0.83;100.00;99770.00;5261140;23;19928;-77
2023/12/05 10:34:44;;;;;;;;;;;;;;;0.83;100.00;99770.00;4994987;28;19934;-77
2023/12/05 10:37:10;;;;;;;;;;;;;;;0.83;100.00;99770.00;4999055;28;19933;-77
2023/12/05 10:39:35;;;;;;;;;;;;;;;0.84;100.00;99771.66;5020606;28;19921;-78
2023/12/05 10:42:00;;;;;;;;;;;;;;;0.87;100.00;99769.50;5026806;28;19992;-78
2023/12/05 10:44:25;;;;;;;;;;;;;;;0.89;100.00;99769.31;5021419;28;20016;-78
2023/12/05 10:46:55;;;;;;;;;;;;;;;0.93;100.00;99764.56;5014360;28;19928;-78
2023/12/05 10:49:20;;;;;;;;;;;;;;;1.01;100.00;99772.50;5012147;28;20438;-78
2023/12/05 10:51:47;;;;;;;;;;;;;;;0.94;100.00;99764.38;5011921;28;19930;-78
2023/12/05 10:54:13;;;;;;;;;;;;;;;0.95;100.00;99767.88;5013688;28;19922;-77
2023/12/05 10:56:38;;;;;;;;;;;;;;;0.90;100.00;99770.97;5012917;28;20361;-77
2023/12/05 10:59:03;;;;;;;;;;;;;;;0.92;100.00;99770.84;5012152;28;20021;-78
2023/12/05 11:01:35;;;;;;;;;;;;;;;0.92;100.00;99776.97;5011780;28;19972;-78
2023/12/05 11:04:02;;;;;;;;;;;;;;;0.96;100.00;99780.94;5012326;28;19931;-78
2023/12/05 11:06:28;;;;;;;;;;;;;;;1.00;100.00;99781.44;4994917;28;20344;-79
2023/12/05 11:08:53;;;;;;;;;;;;;;;1.00;100.00;99779.66;5012373;28;19929;-79
2023/12/05 11:11:18;;;;;;;;;;;;;;;0.93;100.00;99781.25;5016424;28;19973;-78
2023/12/05 11:16:26;;;;;;;;;;;;;;;0.99;100.00;99787.75;5035086;22;19952;-78
2023/12/05 11:18:57;;;;;;;;;;;;;;;1.00;100.00;99792.91;5010679;28;20364;-78
2023/12/05 11:27:13;;;;;;;;;;;;;;;1.03;100.00;99800.53;5011871;28;19998;-78
2023/12/05 11:29:57;;;;;;;;;;;;;;;1.01;100.00;99804.31;4994856;28;19999;-78
2023/12/05 11:32:32;;;;;;;;;;;;;;;1.05;100.00;99809.16;5006013;28;19921;-78
2023/12/05 11:37:57;;;;;;;;;;;;;;;1.07;100.00;99814.28;5074037;22;19936;-76
2023/12/05 11:52:56;;;;;;;;;;;;;;;1.01;100.00;99826.38;5010361;28;20435;-76
2023/12/05 11:55:30;;;;;;;;;;;;;;;1.00;100.00;99832.66;4994896;28;20266;-78
2023/12/05 11:57:56;;;;;;;;;;;;;;;0.96;100.00;99833.94;5008635;28;19926;-77
2023/12/05 12:00:21;;;;;;;;;;;;;;;0.93;100.00;99831.63;5010730;28;20454;-78
2023/12/05 12:02:56;;;;;;;;;;;;;;;0.91;100.00;99830.94;5012335;28;20289;-78
2023/12/05 12:05:21;;;;;;;;;;;;;;;0.93;100.00;99834.25;5010534;28;20402;-78
2023/12/05 12:07:48;;;;;;;;;;;;;;;0.89;100.00;99833.75;5147049;22;19925;-78
2023/12/05 12:10:14;;;;;;;;;;;;;;;0.89;100.00;99833.75;5011594;28;19961;-78
2023/12/05 12:12:42;;;;;;;;;;;;;;;0.94;100.00;99838.56;5011241;28;20313;-78
2023/12/05 12:15:07;;;;;;;;;;;;;;;1.00;100.00;99842.41;5017698;28;20669;-78
2023/12/05 12:17:32;;;;;;;;;;;;;;;1.02;100.00;99846.56;5011929;28;19922;-78
2023/12/05 12:19:58;;;;;;;;;;;;;;;1.01;100.00;99842.25;5011194;28;19929;-77
2023/12/05 12:22:49;;;;;;;;;;;;;;;0.94;100.00;99845.72;5010521;28;20002;-77
2023/12/05 12:25:16;;;;;;;;;;;;;;;0.93;100.00;99850.16;5018466;28;19920;-77
2023/12/05 12:27:41;;;;;;;;;;;;;;;0.93;100.00;99852.00;5025116;28;20391;-77
2023/12/05 12:30:07;;;;;;;;;;;;;;;0.93;100.00;99855.47;5011908;28;19925;-77
2023/12/05 12:32:32;;;;;;;;;;;;;;;0.97;100.00;99856.81;5004761;28;19961;-77
2023/12/05 12:34:58;;;;;;;;;;;;;;;1.02;100.00;99859.81;5011044;28;19922;-77
2023/12/05 12:39:53;;;;;;;;;;;;;;;0.95;100.00;99858.78;4993155;28;19937;-76
2023/12/05 12:42:19;;;;;;;;;;;;;;;0.92;100.00;99851.16;4992041;28;19926;-77
2023/12/05 12:44:44;;;;;;;;;;;;;;;0.87;100.00;99856.94;4999201;28;20031;-77
2023/12/05 12:47:11;;;;;;;;;;;;;;;0.89;100.00;99862.91;4996241;28;19922;-76
2023/12/05 12:49:39;;;;;;;;;;;;;;;0.88;100.00;99873.69;4999387;28;19980;-77
2023/12/05 12:52:04;;;;;;;;;;;;;;;0.87;100.00;99872.84;4997486;28;20447;-77
2023/12/05 12:54:37;;;;;;;;;;;;;;;0.86;100.00;99873.00;4977047;28;19925;-77
2023/12/05 12:57:02;;;;;;;;;;;;;;;0.84;100.00;99878.44;4976826;28;20392;-76
2023/12/05 12:59:27;;;;;;;;;;;;;;;0.80;100.00;99860.38;4993012;28;19930;-76
2023/12/05 13:01:55;;;;;;;;;;;;;;;0.84;100.00;99869.69;5006018;28;19918;-76
2023/12/05 13:04:21;;;;;;;;;;;;;;;0.81;100.00;99872.63;4995515;28;19926;-76
2023/12/05 13:06:46;;;;;;;;;;;;;;;0.80;100.00;99866.50;5001866;28;20020;-77
2023/12/05 13:09:12;;;;;;;;;;;;;;;0.85;100.00;99876.63;5004379;28;19953;-77
2023/12/05 13:11:37;;;;;;;;;;;;;;;0.81;100.00;99868.16;4995543;28;19926;-76
2023/12/05 13:14:09;;;;;;;;;;;;;;;0.79;100.00;99875.47;4993313;28;20372;-76
2023/12/05 13:16:41;;;;;;;;;;;;;;;0.74;100.00;99875.91;4998737;28;19926;-77
2023/12/05 13:19:06;;;;;;;;;;;;;;;0.69;100.00;99875.56;5000034;28;19925;-77
2023/12/05 13:21:32;;;;;;;;;;;;;;;0.64;100.00;99877.00;4998231;28;19945;-77
2023/12/05 13:23:57;;;;;;;;;;;;;;;0.61;100.00;99886.09;4995282;28;19928;-77
2023/12/05 13:26:23;;;;;;;;;;;;;;;0.62;100.00;99889.59;4997536;28;19922;-77
2023/12/05 13:28:48;;;;;;;;;;;;;;;0.58;100.00;99894.34;4997868;28;19972;-77
2023/12/05 13:31:13;;;;;;;;;;;;;;;0.57;100.00;99892.69;4997754;28;19928;-77
2023/12/05 13:33:38;;;;;;;;;;;;;;;0.51;100.00;99893.31;4998363;28;19925;-77
2023/12/05 13:36:04;;;;;;;;;;;;;;;0.49;100.00;99895.28;5001701;28;19932;-77
2023/12/05 13:38:35;;;;;;;;;;;;;;;0.52;100.00;99895.00;4991078;28;20013;-77
2023/12/05 13:41:01;;;;;;;;;;;;;;;0.48;100.00;99901.56;4995408;28;19929;-77
2023/12/05 13:43:26;;;;;;;;;;;;;;;0.51;100.00;99909.22;4998786;28;19922;-77
2023/12/05 13:45:52;;;;;;;;;;;;;;;0.54;100.00;99911.53;4998240;28;19921;-77
2023/12/05 13:48:17;;;;;;;;;;;;;;;0.47;100.00;99913.97;4996088;28;20066;-75
2023/12/05 13:50:42;;;;;;;;;;;;;;;0.46;100.00;99920.25;4998376;28;19921;-77
2023/12/05 13:53:11;;;;;;;;;;;;;;;0.45;100.00;99922.06;4991711;28;19948;-77